createdAt,value
2017-08-19T01:39:32.697Z,6.28
2017-08-19T01:42:43.074Z,7.72
2017-08-19T01:45:53.235Z,6.50
2017-08-19T01:49:03.103Z,6.43
2017-08-19T01:52:13.931Z,6.40
2017-08-19T01:55:24.703Z,6.10
2017-08-19T01:58:34.688Z,6.32
2017-08-19T02:01:45.413Z,5.03
2017-08-19T02:04:55.608Z,5.60
2017-08-19T02:08:06.167Z,5.40
2017-08-19T02:11:16.395Z,5.00
2017-08-19T02:14:26.499Z,5.30
2017-08-19T02:17:37.184Z,6.03
2017-08-19T02:20:47.349Z,7.32
2017-08-19T02:23:58.281Z,5.20
2017-08-19T02:27:08.505Z,5.60
2017-08-19T02:30:18.892Z,4.62
2017-08-19T02:33:29.300Z,5.95
2017-08-19T02:36:40.176Z,5.15
2017-08-19T02:39:50.041Z,5.03
2017-08-19T02:43:00.244Z,5.70
2017-08-19T02:46:10.460Z,5.90
2017-08-19T02:49:20.353Z,5.10
2017-08-19T02:52:30.684Z,6.12
2017-08-19T02:55:41.175Z,5.18
2017-08-19T02:58:51.717Z,6.10
2017-08-19T03:02:02.565Z,6.00
2017-08-19T03:05:13.432Z,5.90
2017-08-19T03:08:23.408Z,5.90
2017-08-19T03:11:33.623Z,4.70
2017-08-19T03:14:44.904Z,6.20
2017-08-19T03:17:55.318Z,6.62
2017-08-19T03:21:05.371Z,5.10
2017-08-19T03:24:16.607Z,5.85
2017-08-19T03:27:26.929Z,5.72
2017-08-19T03:30:37.361Z,5.90
2017-08-19T03:33:47.637Z,5.78
2017-08-19T03:36:57.680Z,6.82
2017-08-19T03:40:07.872Z,7.03
2017-08-19T03:43:17.829Z,5.32
2017-08-19T03:46:28.233Z,5.90
2017-08-19T03:49:39.045Z,6.80
2017-08-19T03:52:49.267Z,5.78
2017-08-19T03:56:00.008Z,5.72
2017-08-19T03:59:10.650Z,5.70
2017-08-19T04:02:20.559Z,7.00
2017-08-19T04:05:30.621Z,6.35
2017-08-19T04:08:40.828Z,7.00
2017-08-19T04:11:51.497Z,6.62
2017-08-19T04:15:02.213Z,7.60
2017-08-19T04:18:12.197Z,5.68
2017-08-19T04:21:22.287Z,6.40
2017-08-19T04:24:33.016Z,7.00
2017-08-19T04:27:43.797Z,6.25
2017-08-19T04:30:55.069Z,7.15
2017-08-19T04:34:05.680Z,6.25
2017-08-19T04:37:15.988Z,6.03
2017-08-19T04:40:26.280Z,6.35
2017-08-19T04:43:36.347Z,6.43
2017-08-19T04:46:46.812Z,6.43
2017-08-19T04:49:57.187Z,6.50
2017-08-19T04:53:07.414Z,6.62
2017-08-19T04:56:17.324Z,5.32
2017-08-19T04:59:27.935Z,5.70
2017-08-19T05:02:39.523Z,5.10
2017-08-19T05:05:50.033Z,6.20
2017-08-19T05:09:00.224Z,5.20
2017-08-19T05:12:11.782Z,6.18
2017-08-19T05:15:22.678Z,6.00
2017-08-19T05:18:32.608Z,5.67
2017-08-19T05:21:43.252Z,5.43
2017-08-19T05:24:53.735Z,4.93
2017-08-19T05:28:04.237Z,5.15
2017-08-19T05:31:13.867Z,5.00
2017-08-19T05:34:24.502Z,5.18
2017-08-19T05:37:34.899Z,4.50
2017-08-19T05:40:45.168Z,5.20
2017-08-19T05:43:55.733Z,5.72
2017-08-19T05:47:06.166Z,5.40
2017-08-19T05:50:16.050Z,5.30
2017-08-19T05:53:26.529Z,4.70
2017-08-19T05:56:37.217Z,5.55
2017-08-19T05:59:47.657Z,5.23
2017-08-19T06:02:58.175Z,5.40
2017-08-19T06:06:08.177Z,8.30
2017-08-19T06:09:17.849Z,6.67
2017-08-19T06:12:28.581Z,6.40
2017-08-19T06:15:38.971Z,6.33
2017-08-19T06:18:49.307Z,9.00
2017-08-19T06:21:59.890Z,9.60
2017-08-19T06:25:10.536Z,8.40
2017-08-19T06:28:21.450Z,5.43
2017-08-19T06:31:31.141Z,5.03
2017-08-19T06:34:41.015Z,5.80
2017-08-19T06:37:51.380Z,4.80
2017-08-19T06:41:01.600Z,5.27
2017-08-19T06:44:11.634Z,4.62
2017-08-19T06:47:21.796Z,4.67
2017-08-19T06:50:31.833Z,4.97
2017-08-19T06:53:41.759Z,4.53
2017-08-19T06:56:52.254Z,5.60
2017-08-19T07:00:03.233Z,5.75
2017-08-19T07:03:13.359Z,4.63
2017-08-19T07:06:23.988Z,5.40
2017-08-19T07:09:34.498Z,5.37
2017-08-19T07:12:44.489Z,4.80
2017-08-19T07:15:55.218Z,4.85
2017-08-19T07:19:06.038Z,4.47
2017-08-19T07:22:16.671Z,4.83
2017-08-19T07:25:26.548Z,5.40
2017-08-19T07:28:37.129Z,4.80
2017-08-19T07:31:47.979Z,4.73
2017-08-19T07:34:58.347Z,4.73
2017-08-19T07:38:09.090Z,3.50
2017-08-19T07:41:19.395Z,4.35
2017-08-19T07:44:29.633Z,4.07
2017-08-19T07:47:44.169Z,3.90
2017-08-19T07:50:55.430Z,3.00
2017-08-19T07:54:05.411Z,4.20
2017-08-19T07:57:15.628Z,4.53
2017-08-19T08:00:25.712Z,3.62
2017-08-19T08:03:35.738Z,4.60
2017-08-19T08:06:46.275Z,3.60
2017-08-19T08:13:16.555Z,3.40
2017-08-19T08:16:26.404Z,3.53
2017-08-19T08:19:36.501Z,2.90
2017-08-19T08:22:47.075Z,3.42
2017-08-19T08:25:58.085Z,3.60
2017-08-19T08:29:08.720Z,2.97
2017-08-19T08:32:18.881Z,3.20
2017-08-19T08:35:29.136Z,2.80
2017-08-19T08:38:39.285Z,3.57
2017-08-19T08:41:49.330Z,3.70
2017-08-19T08:44:59.502Z,2.90
2017-08-19T08:48:10.175Z,2.12
2017-08-19T08:51:20.156Z,2.85
2017-08-19T08:54:30.350Z,3.40
2017-08-19T08:57:40.507Z,2.95
2017-08-19T09:00:50.824Z,3.17
2017-08-19T09:04:01.103Z,2.57
2017-08-19T09:07:11.701Z,3.57
2017-08-19T09:10:21.832Z,3.20
2017-08-19T09:13:32.054Z,2.75
2017-08-19T09:16:42.394Z,3.28
2017-08-19T09:19:53.002Z,2.83
2017-08-19T09:23:03.619Z,3.40
2017-08-19T09:26:13.716Z,3.60
2017-08-19T09:29:23.759Z,3.03
2017-08-19T09:32:33.596Z,2.50
2017-08-19T09:35:43.689Z,2.90
2017-08-19T09:38:53.857Z,2.80
2017-08-19T09:42:04.228Z,2.40
2017-08-19T09:45:14.087Z,2.43
2017-08-19T09:48:26.200Z,2.40
2017-08-19T09:51:36.769Z,2.57
2017-08-19T09:54:47.077Z,2.60
2017-08-19T09:57:58.267Z,2.35
2017-08-19T10:01:09.242Z,2.40
2017-08-19T10:04:19.181Z,2.60
2017-08-19T10:07:29.147Z,2.83
2017-08-19T10:10:43.753Z,2.80
2017-08-19T10:13:54.135Z,2.30
2017-08-19T10:17:04.008Z,2.73
2017-08-19T10:20:14.271Z,2.00
2017-08-19T10:23:24.839Z,1.67
2017-08-19T10:26:35.842Z,2.22
2017-08-19T10:29:46.545Z,2.20
2017-08-19T10:32:57.553Z,2.20
2017-08-19T10:36:08.360Z,2.60
2017-08-19T10:39:19.715Z,1.97
2017-08-19T10:42:33.130Z,2.85
2017-08-19T10:45:52.190Z,2.10
2017-08-19T10:49:13.803Z,3.42
2017-08-19T10:52:27.314Z,2.08
2017-08-19T10:55:41.853Z,2.33
2017-08-19T10:58:53.336Z,2.50
2017-08-19T11:02:08.840Z,2.40
2017-08-19T11:05:24.723Z,2.20
2017-08-19T11:08:41.565Z,2.40
2017-08-19T11:11:55.308Z,2.40
2017-08-19T11:15:09.683Z,2.00
2017-08-19T11:18:23.889Z,2.07
2017-08-19T11:21:39.254Z,1.90
2017-08-19T11:24:56.068Z,2.00
2017-08-19T11:28:15.024Z,1.93
2017-08-19T11:31:33.375Z,5.57
2017-08-19T11:34:50.982Z,1.80
2017-08-19T11:38:07.195Z,6.83
2017-08-19T11:41:24.107Z,2.87
2017-08-19T11:44:41.514Z,1.95
2017-08-19T11:47:58.382Z,2.30
2017-08-19T11:51:17.427Z,2.30
2017-08-19T11:54:40.900Z,2.33
2017-08-19T11:57:54.007Z,1.70
2017-08-19T12:01:09.117Z,2.40
2017-08-19T12:04:25.246Z,1.60
2017-08-19T12:07:39.071Z,1.90
2017-08-19T12:10:50.286Z,2.05
2017-08-19T12:14:00.773Z,2.13
2017-08-19T12:17:13.680Z,2.35
2017-08-19T12:20:30.839Z,1.92
2017-08-19T12:23:48.939Z,1.97
2017-08-19T12:27:08.725Z,2.00
2017-08-19T12:30:29.605Z,2.03
2017-08-19T12:33:50.615Z,1.73
2017-08-19T12:37:07.353Z,2.30
2017-08-19T12:40:26.406Z,2.60
2017-08-19T12:43:40.470Z,2.22
2017-08-19T12:46:57.321Z,2.43
2017-08-19T12:50:13.404Z,1.90
2017-08-19T12:53:28.520Z,1.85
2017-08-19T12:56:48.378Z,1.90
2017-08-19T13:00:04.150Z,1.60
2017-08-19T13:03:18.136Z,1.62
2017-08-19T13:06:30.273Z,2.10
2017-08-19T13:09:41.739Z,1.77
2017-08-19T13:12:53.162Z,2.90
2017-08-19T13:16:14.851Z,1.80
2017-08-19T13:19:37.532Z,2.03
2017-08-19T13:22:54.769Z,2.67
2017-08-19T13:26:10.212Z,6.97
2017-08-19T13:29:28.721Z,1.70
2017-08-19T13:32:45.241Z,2.50
2017-08-19T13:36:05.413Z,1.80
2017-08-19T13:39:22.624Z,4.68
2017-08-19T13:42:41.213Z,2.12
2017-08-19T13:45:59.536Z,5.20
2017-08-19T13:49:15.136Z,2.40
2017-08-19T13:52:31.160Z,1.90
2017-08-19T13:55:42.924Z,2.40
2017-08-19T13:59:00.821Z,2.10
2017-08-19T14:02:18.093Z,2.00
2017-08-19T14:05:29.944Z,2.00
2017-08-19T14:08:47.178Z,1.80
2017-08-19T14:12:05.310Z,1.42
2017-08-19T14:15:29.300Z,1.70
2017-08-19T14:18:49.879Z,1.67
2017-08-19T14:22:03.586Z,1.77
2017-08-19T14:25:17.401Z,1.90
2017-08-19T14:28:33.005Z,1.70
2017-08-19T14:31:47.158Z,1.52
2017-08-19T14:35:03.104Z,1.45
2017-08-19T14:38:16.796Z,1.70
2017-08-19T14:41:29.167Z,2.00
2017-08-19T14:44:47.687Z,1.60
2017-08-19T14:47:59.902Z,1.87
2017-08-19T14:51:10.499Z,1.50
2017-08-19T14:54:23.523Z,2.50
2017-08-19T14:57:37.874Z,1.75
2017-08-19T15:00:52.552Z,2.10
2017-08-19T15:04:06.949Z,2.07
2017-08-19T15:07:20.453Z,2.00
2017-08-19T15:10:33.463Z,2.40
2017-08-19T15:14:00.881Z,2.90
2017-08-19T15:17:18.728Z,2.83
2017-08-19T15:20:43.955Z,2.70
2017-08-19T15:23:58.849Z,1.90
2017-08-19T15:27:13.950Z,1.80
2017-08-19T15:30:30.217Z,1.60
2017-08-19T15:33:42.118Z,3.10
2017-08-19T15:36:57.281Z,2.87
2017-08-19T15:40:14.672Z,2.00
2017-08-19T15:43:25.642Z,2.23
2017-08-19T15:46:37.049Z,1.85
2017-08-19T15:49:52.258Z,2.10
2017-08-19T15:53:09.566Z,2.37
2017-08-19T15:56:20.487Z,1.92
2017-08-19T15:59:33.878Z,2.10
2017-08-19T16:02:43.943Z,1.90
2017-08-19T16:05:54.500Z,1.90
2017-08-19T16:09:05.418Z,2.28
2017-08-19T16:12:16.484Z,2.40
2017-08-19T16:15:26.652Z,2.20
2017-08-19T16:18:37.934Z,2.00
2017-08-19T16:21:48.859Z,1.85
2017-08-19T16:25:00.426Z,2.30
2017-08-19T16:28:10.902Z,3.22
2017-08-19T16:31:21.206Z,4.18
2017-08-19T16:34:31.286Z,1.95
2017-08-19T16:37:41.907Z,1.70
2017-08-19T16:40:54.531Z,2.10
2017-08-19T16:44:05.118Z,1.80
2017-08-19T16:47:15.032Z,2.10
2017-08-19T16:50:24.823Z,2.40
2017-08-19T16:53:35.127Z,2.30
2017-08-19T16:56:45.531Z,2.70
2017-08-19T16:59:56.944Z,1.90
2017-08-19T17:03:07.408Z,2.20
2017-08-19T17:06:19.431Z,1.97
2017-08-19T17:09:29.621Z,2.00
2017-08-19T17:12:40.652Z,2.00
2017-08-19T17:15:53.198Z,2.40
2017-08-19T17:19:10.205Z,3.70
2017-08-19T17:22:30.399Z,2.60
2017-08-19T17:25:51.697Z,2.00
2017-08-19T17:29:06.924Z,3.12
2017-08-19T17:32:19.624Z,2.80
2017-08-19T17:35:30.660Z,2.20
2017-08-19T17:38:42.767Z,2.20
2017-08-19T17:41:54.166Z,3.10
2017-08-19T17:45:05.911Z,3.03
2017-08-19T17:48:17.502Z,2.70
2017-08-19T17:51:29.792Z,7.68
2017-08-19T17:54:42.490Z,3.10
2017-08-19T17:57:53.587Z,3.00
2017-08-19T18:01:15.760Z,2.80
2017-08-19T18:04:30.848Z,2.87
2017-08-19T18:07:53.195Z,2.70
2017-08-19T18:11:08.451Z,2.40
2017-08-19T18:14:28.643Z,2.50
2017-08-19T18:17:38.587Z,2.50
2017-08-19T18:20:48.594Z,2.20
2017-08-19T18:23:59.058Z,2.30
2017-08-19T18:27:09.444Z,2.50
2017-08-19T18:30:20.109Z,2.83
2017-08-19T18:33:30.240Z,3.00
2017-08-19T18:36:40.647Z,2.10
2017-08-19T18:39:50.966Z,2.03
2017-08-19T18:43:01.117Z,2.90
2017-08-19T18:46:11.659Z,2.33
2017-08-19T18:49:22.172Z,2.30
2017-08-19T18:52:32.003Z,2.10
2017-08-19T18:55:42.816Z,2.10
2017-08-19T18:58:53.133Z,2.45
2017-08-19T19:02:03.879Z,2.60
2017-08-19T19:05:14.279Z,2.50
2017-08-19T19:08:24.737Z,2.40
2017-08-19T19:11:34.555Z,2.25
2017-08-19T19:14:45.420Z,2.10
2017-08-19T19:17:55.727Z,2.10
2017-08-19T19:21:06.335Z,2.20
2017-08-19T19:24:17.149Z,2.57
2017-08-19T19:27:27.171Z,2.80
2017-08-19T19:30:37.976Z,2.90
2017-08-19T19:33:48.063Z,3.20
2017-08-19T19:36:58.626Z,2.73
2017-08-19T19:40:08.541Z,2.60
2017-08-19T19:43:19.086Z,2.30
2017-08-19T19:46:28.790Z,2.73
2017-08-19T19:49:38.699Z,2.60
2017-08-19T19:52:48.999Z,2.60
2017-08-19T19:55:59.696Z,3.45
2017-08-19T19:59:10.440Z,2.22
2017-08-19T20:02:20.965Z,2.70
2017-08-19T20:05:30.917Z,2.70
2017-08-19T20:08:41.674Z,2.58
2017-08-19T20:11:52.034Z,2.80
2017-08-19T20:15:02.333Z,2.30
2017-08-19T20:18:13.580Z,2.60
2017-08-19T20:21:23.271Z,2.50
2017-08-19T20:24:33.310Z,2.95
2017-08-19T20:27:43.315Z,2.93
2017-08-19T20:30:53.496Z,2.30
2017-08-19T20:34:04.163Z,2.60
2017-08-19T20:37:15.087Z,2.83
2017-08-19T20:40:25.623Z,3.00
2017-08-19T20:43:35.705Z,3.70
2017-08-19T20:46:46.169Z,2.87
2017-08-19T20:49:55.893Z,3.20
2017-08-19T20:53:05.660Z,2.83
2017-08-19T20:56:15.824Z,3.77
2017-08-19T20:59:26.455Z,2.90
2017-08-19T21:02:36.878Z,2.60
2017-08-19T21:05:46.732Z,3.20
2017-08-19T21:08:57.081Z,3.45
2017-08-19T21:12:07.619Z,3.40
2017-08-19T21:15:18.034Z,2.70
2017-08-19T21:18:30.949Z,3.00
2017-08-19T21:21:41.097Z,3.57
2017-08-19T21:24:52.262Z,4.10
2017-08-19T21:28:03.968Z,3.70
2017-08-19T21:31:13.876Z,4.13
2017-08-19T21:34:24.274Z,4.18
2017-08-19T21:37:34.936Z,3.42
2017-08-19T21:40:45.205Z,3.50
2017-08-19T21:43:55.095Z,3.50
2017-08-19T21:47:05.271Z,4.25
2017-08-19T21:50:16.171Z,3.17
2017-08-19T21:53:26.933Z,4.33
2017-08-19T21:56:36.736Z,3.23
2017-08-19T21:59:47.445Z,4.00
2017-08-19T22:02:58.233Z,3.80
2017-08-19T22:06:08.168Z,4.10
2017-08-19T22:09:18.870Z,4.03
2017-08-19T22:12:29.514Z,3.97
2017-08-19T22:15:39.920Z,3.30
2017-08-19T22:18:50.200Z,4.37
2017-08-19T22:22:00.782Z,3.67
2017-08-19T22:25:11.604Z,3.70
2017-08-19T22:28:22.048Z,3.23
2017-08-19T22:31:31.800Z,3.30
2017-08-19T22:34:42.097Z,3.77
2017-08-19T22:37:51.802Z,3.40
2017-08-19T22:41:02.072Z,3.40
2017-08-19T22:44:12.774Z,4.00
2017-08-19T22:47:23.053Z,3.90
2017-08-19T22:50:33.773Z,4.10
2017-08-19T22:53:43.982Z,3.20
2017-08-19T22:56:54.379Z,3.90
2017-08-19T23:00:05.809Z,3.40
2017-08-19T23:03:17.187Z,4.10
2017-08-19T23:06:26.961Z,3.70
2017-08-19T23:09:37.230Z,4.07
2017-08-19T23:12:47.579Z,4.10
2017-08-19T23:15:58.156Z,4.03
2017-08-19T23:19:08.308Z,3.92
2017-08-19T23:22:19.022Z,3.90
2017-08-19T23:25:29.646Z,4.83
2017-08-19T23:28:39.205Z,4.82
2017-08-19T23:31:50.016Z,4.37
2017-08-19T23:35:00.281Z,4.65
2017-08-19T23:38:10.689Z,3.40
2017-08-19T23:41:20.677Z,5.03
2017-08-19T23:44:30.482Z,4.30
2017-08-19T23:47:40.820Z,4.60
2017-08-19T23:50:51.462Z,4.30
2017-08-19T23:54:01.610Z,3.80
2017-08-19T23:57:11.796Z,4.47
